Time;durP1;ratioP1;P1;durP2;ratioP2;P2;SDS_P1;SDS_P2;PMS_P1;PMS_P2;Temp;Humidity;BMP_temperature;BMP_pressure;BME280_temperature;BME280_humidity;BME280_pressure;Samples;Min_cycle;Max_cycle;Signal;HPM_P1;HPM_P2
2021/09/29 00:00:08;;;;;;;15.38;7.03;;;10.20;99.90;;;;;;5078177;28;20053;-89
2021/09/29 00:02:34;;;;;;;27.55;7.80;;;10.20;99.90;;;;;;5072194;28;20063;-89
2021/09/29 00:05:00;;;;;;;18.55;6.65;;;10.20;99.90;;;;;;5060513;28;20037;-89
2021/09/29 00:07:25;;;;;;;18.42;6.78;;;10.30;99.90;;;;;;5047772;28;20045;-90
2021/09/29 00:09:51;;;;;;;17.70;6.65;;;10.30;99.90;;;;;;5046514;28;20481;-89
2021/09/29 00:12:17;;;;;;;26.67;7.38;;;10.30;99.90;;;;;;5047482;28;20508;-88
2021/09/29 00:14:43;;;;;;;18.27;6.10;;;10.30;99.90;;;;;;5047085;28;20486;-88
2021/09/29 00:17:08;;;;;;;18.70;6.28;;;10.30;99.90;;;;;;5064479;28;20049;-88
2021/09/29 00:19:34;;;;;;;21.95;6.00;;;10.30;99.90;;;;;;5080312;28;20124;-89
2021/09/29 00:22:00;;;;;;;18.40;5.30;;;10.40;99.90;;;;;;5047146;28;20806;-89
2021/09/29 00:24:25;;;;;;;23.02;5.82;;;10.40;99.90;;;;;;5047394;28;20048;-89
2021/09/29 00:26:51;;;;;;;37.42;9.10;;;10.40;99.90;;;;;;5063511;28;20049;-88
2021/09/29 00:29:17;;;;;;;15.27;5.82;;;10.40;99.90;;;;;;5047386;28;20489;-88
2021/09/29 00:31:42;;;;;;;19.80;5.43;;;10.40;99.90;;;;;;5047352;28;20131;-88
2021/09/29 00:34:12;;;;;;;16.40;5.97;;;10.30;99.90;;;;;;5047238;28;20052;-89
2021/09/29 00:36:43;;;;;;;22.98;7.10;;;10.30;99.90;;;;;;5047571;28;20060;-88
2021/09/29 00:39:10;;;;;;;18.88;6.55;;;10.30;99.90;;;;;;5046495;28;20045;-89
2021/09/29 00:41:36;;;;;;;21.10;6.35;;;10.20;99.90;;;;;;5064312;28;20045;-89
2021/09/29 00:44:04;;;;;;;19.52;7.25;;;10.20;99.90;;;;;;5047732;28;20091;-88
2021/09/29 00:46:30;;;;;;;17.00;7.30;;;10.10;99.90;;;;;;5048620;28;20056;-88
2021/09/29 00:48:55;;;;;;;25.25;8.02;;;10.10;99.90;;;;;;5046594;28;20037;-88
2021/09/29 00:51:21;;;;;;;21.42;7.15;;;10.00;99.90;;;;;;5030248;28;20049;-88
2021/09/29 00:53:48;;;;;;;21.35;7.22;;;10.00;99.90;;;;;;5062842;28;20488;-88
2021/09/29 00:56:15;;;;;;;23.60;6.93;;;10.00;99.90;;;;;;5047271;28;20053;-89
2021/09/29 00:58:41;;;;;;;18.27;8.32;;;9.90;99.90;;;;;;5048126;28;20401;-88
2021/09/29 01:01:06;;;;;;;19.20;7.55;;;9.90;99.90;;;;;;5046684;28;20041;-89
2021/09/29 01:03:33;;;;;;;18.13;7.93;;;9.80;99.90;;;;;;5047053;28;20056;-89
2021/09/29 01:06:07;;;;;;;16.60;8.50;;;9.80;99.90;;;;;;4997545;28;20053;-90
2021/09/29 01:08:39;;;;;;;25.25;9.00;;;9.70;99.90;;;;;;5044240;28;20064;-89
2021/09/29 01:11:19;;;;;;;30.17;8.80;;;9.70;99.90;;;;;;5049832;28;20057;-90
2021/09/29 01:14:05;;;;;;;19.98;8.45;;;9.70;99.90;;;;;;5034241;28;20075;-89
2021/09/29 01:16:37;;;;;;;18.25;8.60;;;9.70;99.90;;;;;;5033911;28;20179;-89
2021/09/29 01:19:04;;;;;;;26.02;8.45;;;9.60;99.90;;;;;;5049058;28;20486;-89
2021/09/29 01:21:44;;;;;;;20.55;9.02;;;9.60;99.90;;;;;;5050105;28;20132;-89
2021/09/29 01:24:21;;;;;;;23.17;9.10;;;9.60;99.90;;;;;;5049745;28;20535;-89
2021/09/29 01:26:48;;;;;;;21.13;8.32;;;9.60;99.90;;;;;;5050466;28;20106;-88
2021/09/29 01:29:18;;;;;;;23.10;9.40;;;9.50;99.90;;;;;;5066188;28;20132;-89
2021/09/29 01:31:44;;;;;;;24.85;8.63;;;9.50;99.90;;;;;;5049753;28;20045;-88
2021/09/29 01:34:11;;;;;;;18.38;9.15;;;9.50;99.90;;;;;;5049363;28;20501;-88
2021/09/29 01:36:38;;;;;;;25.13;9.75;;;9.50;99.90;;;;;;5050384;28;20049;-88
2021/09/29 01:39:09;;;;;;;21.15;8.23;;;9.50;99.90;;;;;;5049057;28;20577;-88
2021/09/29 01:41:37;;;;;;;23.52;10.10;;;9.50;99.90;;;;;;5050155;28;20041;-88
2021/09/29 01:44:03;;;;;;;24.77;9.18;;;9.50;99.90;;;;;;5049466;28;20053;-88
2021/09/29 01:46:29;;;;;;;18.67;9.35;;;9.40;99.90;;;;;;5049821;28;20064;-88
2021/09/29 01:49:16;;;;;;;17.92;10.27;;;9.40;99.90;;;;;;5066177;28;20106;-88
2021/09/29 01:51:49;;;;;;;20.60;8.95;;;9.40;99.90;;;;;;5064358;28;20049;-89
2021/09/29 01:54:16;;;;;;;23.55;9.20;;;9.40;99.90;;;;;;5049429;28;20079;-89
2021/09/29 01:56:43;;;;;;;27.70;10.82;;;9.40;99.90;;;;;;5066331;28;20059;-89
2021/09/29 01:59:09;;;;;;;20.45;10.25;;;9.40;99.90;;;;;;5048414;28;20083;-88
2021/09/29 02:01:37;;;;;;;18.33;9.32;;;9.40;99.90;;;;;;5049899;28;20397;-88
2021/09/29 02:04:05;;;;;;;20.52;9.35;;;9.40;99.90;;;;;;5049895;28;20122;-88
2021/09/29 02:06:41;;;;;;;26.60;10.77;;;9.40;99.90;;;;;;5033385;28;20056;-89
2021/09/29 02:09:07;;;;;;;17.83;9.75;;;9.40;99.90;;;;;;5048858;28;20408;-89
2021/09/29 02:11:33;;;;;;;29.13;10.95;;;9.50;99.90;;;;;;5049385;28;20049;-89
2021/09/29 02:13:58;;;;;;;19.27;9.77;;;9.50;99.90;;;;;;5032429;28;20037;-88
2021/09/29 02:16:24;;;;;;;21.10;10.48;;;9.60;99.90;;;;;;5083075;28;20056;-89
2021/09/29 02:18:50;;;;;;;24.27;10.55;;;9.60;99.90;;;;;;5049002;28;20164;-89
2021/09/29 02:21:15;;;;;;;22.67;10.32;;;9.70;99.90;;;;;;5064906;28;20102;-89
2021/09/29 02:23:41;;;;;;;21.77;10.25;;;9.70;99.90;;;;;;5049707;28;20139;-88
2021/09/29 02:26:07;;;;;;;28.63;11.57;;;9.70;99.90;;;;;;5048365;28;20044;-89
2021/09/29 02:28:32;;;;;;;28.15;11.63;;;9.70;99.90;;;;;;5065782;28;20052;-88
2021/09/29 02:30:58;;;;;;;20.67;10.98;;;9.80;99.90;;;;;;5031913;28;20130;-89
2021/09/29 02:33:24;;;;;;;17.13;10.93;;;9.80;99.90;;;;;;5049097;28;20040;-88
2021/09/29 02:35:49;;;;;;;27.67;10.27;;;9.80;99.90;;;;;;5049255;28;20037;-89
2021/09/29 02:38:15;;;;;;;21.60;11.15;;;9.80;99.90;;;;;;5063539;28;20045;-89
2021/09/29 02:40:41;;;;;;;20.73;10.93;;;9.80;99.90;;;;;;5065749;28;20072;-88
2021/09/29 02:43:07;;;;;;;22.05;10.43;;;9.80;99.90;;;;;;5064943;28;20593;-88
2021/09/29 02:45:32;;;;;;;31.73;12.20;;;9.80;99.90;;;;;;5032708;28;20041;-89
2021/09/29 02:47:58;;;;;;;22.90;11.95;;;9.80;99.90;;;;;;5047915;28;20048;-88
2021/09/29 02:50:24;;;;;;;17.98;10.93;;;9.80;99.90;;;;;;5065663;28;20523;-89
2021/09/29 02:52:49;;;;;;;23.75;12.38;;;9.90;99.90;;;;;;5048868;28;20110;-89
2021/09/29 02:55:15;;;;;;;23.40;11.02;;;9.90;99.90;;;;;;5064329;28;20048;-89
2021/09/29 02:57:41;;;;;;;26.13;12.05;;;9.90;99.90;;;;;;5064312;28;20095;-88
2021/09/29 03:00:07;;;;;;;23.27;11.82;;;9.90;99.90;;;;;;5048104;28;20080;-88
2021/09/29 03:02:33;;;;;;;30.05;11.98;;;9.90;99.90;;;;;;5065370;28;20057;-88
2021/09/29 03:04:59;;;;;;;30.00;12.15;;;10.00;99.90;;;;;;5048162;28;20126;-87
2021/09/29 03:07:24;;;;;;;19.35;12.15;;;9.90;99.90;;;;;;5065375;28;20137;-89
2021/09/29 03:09:50;;;;;;;15.50;11.75;;;10.00;99.90;;;;;;5048466;28;20049;-89
2021/09/29 03:12:16;;;;;;;23.02;12.40;;;10.00;99.90;;;;;;5047058;28;20041;-90
2021/09/29 03:14:41;;;;;;;31.65;12.80;;;9.90;99.90;;;;;;5048745;28;20060;-89
2021/09/29 03:17:07;;;;;;;24.17;11.00;;;10.00;99.90;;;;;;5064280;28;20493;-89
2021/09/29 03:19:33;;;;;;;20.77;11.25;;;10.00;99.90;;;;;;5031365;28;20053;-89
2021/09/29 03:22:02;;;;;;;20.48;11.77;;;9.90;99.90;;;;;;5048161;28;20056;-87
2021/09/29 03:24:29;;;;;;;20.67;12.05;;;9.90;99.90;;;;;;5048776;28;20041;-90
2021/09/29 03:26:54;;;;;;;31.40;12.00;;;9.90;99.90;;;;;;5047773;28;20041;-90
2021/09/29 03:29:20;;;;;;;21.60;11.25;;;9.90;99.90;;;;;;5046804;28;20096;-90
2021/09/29 03:31:46;;;;;;;22.85;12.68;;;9.90;99.90;;;;;;5065198;28;20045;-88
2021/09/29 03:34:11;;;;;;;23.15;12.52;;;9.90;99.90;;;;;;5064185;28;20053;-88
2021/09/29 03:36:37;;;;;;;27.13;13.57;;;9.80;99.90;;;;;;5064317;28;20123;-89
2021/09/29 03:39:04;;;;;;;23.65;11.93;;;9.90;99.90;;;;;;5046980;28;20509;-88
2021/09/29 03:41:29;;;;;;;20.70;11.93;;;9.80;99.90;;;;;;5064158;28;20508;-88
2021/09/29 03:43:55;;;;;;;21.98;12.15;;;9.80;99.90;;;;;;5064913;28;20045;-89
2021/09/29 03:46:21;;;;;;;18.45;11.80;;;9.80;99.90;;;;;;5063854;28;20041;-88
2021/09/29 03:48:47;;;;;;;28.58;12.70;;;9.80;99.90;;;;;;5047775;28;20041;-88
2021/09/29 03:51:13;;;;;;;28.63;13.95;;;9.80;99.90;;;;;;5047342;28;20041;-88
2021/09/29 03:53:39;;;;;;;31.15;13.55;;;9.80;99.90;;;;;;5047721;28;20084;-89
2021/09/29 03:56:05;;;;;;;23.10;12.70;;;9.70;99.90;;;;;;5063412;28;20113;-88
2021/09/29 03:58:30;;;;;;;24.25;12.27;;;9.70;99.90;;;;;;5046686;28;20489;-88
2021/09/29 04:00:57;;;;;;;22.23;12.75;;;9.70;99.90;;;;;;5064499;28;20063;-88
2021/09/29 04:03:23;;;;;;;24.20;12.95;;;9.70;99.90;;;;;;5046773;28;20481;-89
2021/09/29 04:05:49;;;;;;;27.63;13.35;;;9.70;99.90;;;;;;5031064;28;20041;-88
2021/09/29 04:08:16;;;;;;;21.67;12.73;;;9.70;99.90;;;;;;5035411;28;20072;-89
2021/09/29 04:10:42;;;;;;;18.10;12.32;;;9.70;99.90;;;;;;5047232;28;20095;-89
2021/09/29 04:13:08;;;;;;;25.20;13.65;;;9.70;99.90;;;;;;5080118;28;20156;-88
2021/09/29 04:15:34;;;;;;;25.00;14.05;;;9.60;99.90;;;;;;5031307;28;20175;-88
2021/09/29 04:18:04;;;;;;;28.02;13.48;;;9.60;99.90;;;;;;5031288;28;20056;-89
2021/09/29 04:20:30;;;;;;;20.75;12.52;;;9.70;99.90;;;;;;5064354;28;20090;-89
2021/09/29 04:22:55;;;;;;;22.40;13.27;;;9.60;99.90;;;;;;5063711;28;20128;-89
2021/09/29 04:25:22;;;;;;;26.73;13.55;;;9.60;99.90;;;;;;5063751;28;20072;-89
2021/09/29 04:27:48;;;;;;;22.55;12.35;;;9.50;99.90;;;;;;5064255;28;20047;-90
2021/09/29 04:30:14;;;;;;;22.70;13.00;;;9.50;99.90;;;;;;5047077;28;20053;-89
2021/09/29 04:32:41;;;;;;;23.45;12.25;;;9.50;99.90;;;;;;5047562;28;20163;-90
2021/09/29 04:35:08;;;;;;;20.98;12.70;;;9.50;99.90;;;;;;5047210;28;20052;-89
2021/09/29 04:37:34;;;;;;;25.00;13.15;;;9.60;99.90;;;;;;5063372;28;20060;-89
2021/09/29 04:39:59;;;;;;;24.30;12.65;;;9.60;99.90;;;;;;5064779;28;20052;-90
2021/09/29 04:42:25;;;;;;;19.85;11.98;;;9.60;99.90;;;;;;5067220;28;20044;-89
2021/09/29 04:44:51;;;;;;;22.15;11.35;;;9.60;99.90;;;;;;5051368;28;20084;-89
2021/09/29 04:47:17;;;;;;;25.10;11.20;;;9.60;99.90;;;;;;5050318;28;20068;-90
2021/09/29 04:49:43;;;;;;;26.13;10.82;;;9.60;99.90;;;;;;5051305;28;20088;-90
2021/09/29 04:52:09;;;;;;;21.58;11.18;;;9.70;99.90;;;;;;5050928;28;20048;-88
2021/09/29 04:54:35;;;;;;;25.42;10.90;;;9.70;99.90;;;;;;5051531;28;20049;-89
2021/09/29 04:57:00;;;;;;;21.13;10.85;;;9.80;99.90;;;;;;5049540;28;20041;-89
2021/09/29 04:59:26;;;;;;;20.80;10.75;;;9.80;99.90;;;;;;5032665;28;20119;-90
2021/09/29 05:01:53;;;;;;;28.83;10.07;;;9.80;99.90;;;;;;5067680;28;20056;-89
2021/09/29 05:04:23;;;;;;;18.42;10.40;;;9.80;99.90;;;;;;5050404;28;20045;-90
2021/09/29 05:06:51;;;;;;;29.40;11.15;;;9.80;99.90;;;;;;5066976;28;20076;-90
2021/09/29 05:09:16;;;;;;;21.58;10.38;;;9.90;99.90;;;;;;5066691;28;20047;-90
2021/09/29 05:11:53;;;;;;;21.05;10.60;;;9.90;99.90;;;;;;5067684;28;20049;-89
2021/09/29 05:14:19;;;;;;;19.30;10.50;;;9.90;99.90;;;;;;5050330;28;20045;-88
2021/09/29 05:16:47;;;;;;;20.67;10.88;;;9.90;99.90;;;;;;5033969;28;20052;-90
2021/09/29 05:19:13;;;;;;;19.08;10.02;;;9.90;99.90;;;;;;5049835;28;20071;-89
2021/09/29 05:21:39;;;;;;;21.40;10.55;;;9.90;99.90;;;;;;5050582;28;20041;-90
2021/09/29 05:24:04;;;;;;;17.40;9.32;;;9.90;99.90;;;;;;5050531;28;20045;-90
2021/09/29 05:26:30;;;;;;;20.92;9.98;;;9.90;99.90;;;;;;5052380;28;20052;-88
2021/09/29 05:28:57;;;;;;;15.98;8.90;;;9.90;99.90;;;;;;5067170;28;20405;-89
2021/09/29 05:31:22;;;;;;;24.13;10.30;;;9.90;99.90;;;;;;5065984;28;20477;-90
2021/09/29 05:33:48;;;;;;;22.30;10.18;;;9.90;99.90;;;;;;5050277;28;20041;-89
2021/09/29 05:36:14;;;;;;;21.02;10.07;;;9.80;99.90;;;;;;5065913;28;20099;-88
2021/09/29 05:38:40;;;;;;;22.10;10.50;;;9.90;99.90;;;;;;5038762;28;20037;-89
2021/09/29 05:41:06;;;;;;;22.88;9.90;;;9.90;99.90;;;;;;5067070;28;20508;-89
2021/09/29 05:43:32;;;;;;;19.27;9.70;;;9.90;99.90;;;;;;5040339;28;20080;-89
2021/09/29 05:45:58;;;;;;;20.38;10.48;;;9.90;99.90;;;;;;5049922;28;20128;-89
2021/09/29 05:48:24;;;;;;;23.35;10.20;;;9.90;99.90;;;;;;5054459;28;20103;-89
2021/09/29 05:50:50;;;;;;;16.15;8.90;;;9.90;99.90;;;;;;5049878;28;20068;-89
2021/09/29 05:53:16;;;;;;;16.67;9.48;;;9.90;99.90;;;;;;5040348;28;20061;-88
2021/09/29 05:55:42;;;;;;;18.77;9.35;;;9.90;99.90;;;;;;5050222;28;20123;-88
2021/09/29 05:58:07;;;;;;;28.50;9.88;;;9.90;99.90;;;;;;5049591;28;20438;-89
2021/09/29 06:00:33;;;;;;;22.92;9.25;;;9.90;99.90;;;;;;5053337;28;20135;-90
2021/09/29 06:02:59;;;;;;;31.95;10.38;;;9.90;99.90;;;;;;5051444;28;20049;-89
2021/09/29 06:05:25;;;;;;;17.92;9.02;;;9.90;99.90;;;;;;5034224;28;20072;-88
2021/09/29 06:07:50;;;;;;;20.70;9.02;;;9.90;99.90;;;;;;5065646;28;20460;-90
2021/09/29 06:10:16;;;;;;;18.92;9.27;;;10.00;99.90;;;;;;5065912;28;20127;-90
2021/09/29 06:12:42;;;;;;;20.85;9.63;;;10.00;99.90;;;;;;5049149;28;20086;-90
2021/09/29 06:15:08;;;;;;;21.80;9.45;;;10.00;99.90;;;;;;5064641;28;20503;-92
2021/09/29 06:17:47;;;;;;;21.67;9.10;;;10.00;99.90;;;;;;5028643;28;20044;-94
2021/09/29 06:20:13;;;;;;;21.00;9.82;;;10.10;99.90;;;;;;5066412;28;20048;-91
2021/09/29 06:22:39;;;;;;;22.33;8.57;;;10.10;99.90;;;;;;5047219;28;20045;-93
2021/09/29 06:25:06;;;;;;;23.25;9.65;;;10.10;99.90;;;;;;5071726;28;20102;-92
2021/09/29 06:27:32;;;;;;;16.15;8.13;;;10.10;99.90;;;;;;5053179;28;20120;-92
2021/09/29 06:29:58;;;;;;;25.70;8.77;;;10.20;99.90;;;;;;5051310;28;20429;-91
2021/09/29 06:32:24;;;;;;;19.63;8.60;;;10.20;99.90;;;;;;5067279;28;20408;-91
2021/09/29 06:34:49;;;;;;;15.93;7.88;;;10.30;99.90;;;;;;5052597;28;20047;-93
2021/09/29 06:37:15;;;;;;;18.60;8.10;;;10.30;99.90;;;;;;5048007;28;20045;-89
2021/09/29 06:39:40;;;;;;;25.00;8.05;;;10.40;99.90;;;;;;5036278;28;20137;-93
2021/09/29 06:42:06;;;;;;;20.73;7.57;;;10.50;99.90;;;;;;5051276;28;20037;-92
2021/09/29 06:44:33;;;;;;;16.48;7.43;;;10.50;99.90;;;;;;5053234;28;20052;-92
2021/09/29 06:47:01;;;;;;;13.30;7.15;;;10.50;99.90;;;;;;5051259;28;20485;-93
2021/09/29 06:49:28;;;;;;;20.85;8.27;;;10.60;99.90;;;;;;5052268;28;20068;-93
2021/09/29 06:51:54;;;;;;;20.45;7.82;;;10.60;99.90;;;;;;5070075;28;20159;-91
2021/09/29 06:54:20;;;;;;;14.05;7.10;;;10.70;99.90;;;;;;5068617;28;20136;-88
2021/09/29 06:56:46;;;;;;;15.95;7.40;;;10.70;99.90;;;;;;5055099;28;20052;-92
2021/09/29 06:59:12;;;;;;;17.63;7.75;;;10.80;99.90;;;;;;5051607;28;20056;-93
2021/09/29 07:01:38;;;;;;;18.27;7.88;;;10.90;99.90;;;;;;5073162;28;20596;-91
2021/09/29 07:04:04;;;;;;;20.00;7.53;;;10.90;99.90;;;;;;5048839;28;20143;-90
2021/09/29 07:06:29;;;;;;;12.82;7.47;;;10.90;99.90;;;;;;5075004;28;20559;-92
2021/09/29 07:08:55;;;;;;;18.42;7.18;;;10.90;99.90;;;;;;5046715;28;20044;-93
2021/09/29 07:11:21;;;;;;;19.20;7.63;;;10.90;99.90;;;;;;5074070;28;20048;-90
2021/09/29 07:13:47;;;;;;;16.60;6.03;;;11.00;99.90;;;;;;5050610;28;20051;-94
2021/09/29 07:16:13;;;;;;;15.68;6.75;;;11.00;99.90;;;;;;5059855;28;20476;-93
2021/09/29 07:18:40;;;;;;;18.92;7.03;;;11.00;99.90;;;;;;5071811;28;20037;-93
2021/09/29 07:21:07;;;;;;;38.45;9.10;;;11.10;99.90;;;;;;5036016;28;20377;-90
2021/09/29 07:23:32;;;;;;;14.77;6.78;;;11.10;99.90;;;;;;5065930;28;20053;-91
2021/09/29 07:25:59;;;;;;;19.48;6.85;;;11.10;99.90;;;;;;5066142;28;20088;-93
2021/09/29 07:28:25;;;;;;;14.38;6.38;;;11.20;99.90;;;;;;5076426;28;20048;-93
2021/09/29 07:30:52;;;;;;;9.10;6.32;;;11.20;99.90;;;;;;5045643;28;20044;-93
2021/09/29 07:33:18;;;;;;;18.05;6.85;;;11.30;99.90;;;;;;5065814;28;20075;-93
2021/09/29 07:35:44;;;;;;;17.55;7.03;;;11.40;99.90;;;;;;5064987;28;20107;-94
2021/09/29 07:38:11;;;;;;;14.82;5.95;;;11.50;99.90;;;;;;5062862;28;20064;-91
2021/09/29 07:40:37;;;;;;;20.95;5.80;;;11.70;99.90;;;;;;5047194;28;20119;-90
2021/09/29 07:43:04;;;;;;;13.80;5.05;;;11.90;99.90;;;;;;5065763;28;20048;-91
2021/09/29 07:45:30;;;;;;;10.65;5.45;;;12.10;99.90;;;;;;5065269;28;20051;-94
2021/09/29 07:47:56;;;;;;;13.20;5.13;;;12.20;99.90;;;;;;5047723;28;20048;-95
2021/09/29 07:50:23;;;;;;;13.63;5.40;;;12.30;99.90;;;;;;5050552;28;20044;-90
2021/09/29 07:52:49;;;;;;;11.43;4.75;;;12.30;99.90;;;;;;5059440;28;20221;-93
2021/09/29 07:55:16;;;;;;;12.07;5.18;;;12.40;99.90;;;;;;5065161;28;20145;-94
2021/09/29 07:57:43;;;;;;;16.40;4.93;;;12.50;99.90;;;;;;5051451;28;20122;-96
2021/09/29 08:00:11;;;;;;;12.30;5.40;;;12.60;99.90;;;;;;5066416;28;20111;-96
2021/09/29 08:02:37;;;;;;;11.65;4.65;;;12.70;99.90;;;;;;5066983;28;20059;-96
2021/09/29 08:05:04;;;;;;;9.80;4.75;;;12.70;99.90;;;;;;5066843;28;20045;-94
2021/09/29 08:07:30;;;;;;;10.98;4.82;;;12.80;99.90;;;;;;5069326;28;20166;-94
2021/09/29 08:09:56;;;;;;;11.15;5.40;;;12.80;99.90;;;;;;5064274;28;20146;-95
2021/09/29 08:12:22;;;;;;;16.50;4.57;;;12.80;99.90;;;;;;5069010;28;20049;-92
2021/09/29 08:14:48;;;;;;;19.10;5.10;;;12.90;99.90;;;;;;5071675;28;20049;-95
2021/09/29 08:17:13;;;;;;;17.75;4.78;;;13.00;99.90;;;;;;5067714;28;20059;-92
2021/09/29 08:19:39;;;;;;;9.90;4.20;;;13.00;99.90;;;;;;5072287;28;20048;-96
2021/09/29 08:22:08;;;;;;;14.68;4.47;;;13.10;99.90;;;;;;5090122;28;20052;-92
2021/09/29 08:25:22;;;;;;;12.18;4.05;;;13.10;99.90;;;;;;5072518;28;20044;-94
2021/09/29 08:33:01;;;;;;;11.63;4.18;;;13.10;99.90;;;;;;5060103;28;20052;-93
2021/09/29 08:35:30;;;;;;;15.02;4.28;;;13.00;99.90;;;;;;5060522;28;20052;-90
2021/09/29 08:38:03;;;;;;;11.63;4.32;;;13.00;99.90;;;;;;5045767;28;20074;-89
2021/09/29 08:40:45;;;;;;;11.52;4.78;;;13.00;99.90;;;;;;5061153;28;20124;-89
2021/09/29 08:43:28;;;;;;;12.10;4.05;;;13.00;99.90;;;;;;5049223;28;20049;-92
2021/09/29 08:48:31;;;;;;;12.38;4.50;;;13.00;99.90;;;;;;5068390;28;20163;-91
2021/09/29 09:18:12;;;;;;;15.48;4.63;;;12.70;99.90;;;;;;5085809;28;20060;-94
2021/09/29 09:20:43;;;;;;;15.25;4.60;;;12.70;99.90;;;;;;5051631;28;20053;-92
2021/09/29 09:23:08;;;;;;;10.60;4.20;;;12.70;99.90;;;;;;5034872;28;20107;-94
2021/09/29 09:25:42;;;;;;;9.23;4.28;;;12.70;99.90;;;;;;5058416;28;20857;-90
2021/09/29 09:28:21;;;;;;;18.80;5.75;;;12.80;99.90;;;;;;5035776;28;20116;-94
2021/09/29 09:30:50;;;;;;;17.67;4.82;;;12.90;99.90;;;;;;5065145;28;20499;-95
2021/09/29 09:33:24;;;;;;;13.35;4.38;;;13.00;99.90;;;;;;5044173;28;20088;-95
2021/09/29 09:35:50;;;;;;;10.95;4.20;;;13.00;99.90;;;;;;5056940;28;20059;-93
2021/09/29 09:38:22;;;;;;;13.80;4.32;;;13.10;99.90;;;;;;5051579;28;20041;-92
2021/09/29 09:40:55;;;;;;;8.18;4.22;;;13.10;99.90;;;;;;5082056;28;20082;-91
2021/09/29 09:43:23;;;;;;;11.77;4.00;;;13.20;99.90;;;;;;5059520;28;20048;-94
2021/09/29 09:45:49;;;;;;;15.48;4.53;;;13.20;99.90;;;;;;5070784;28;20048;-94
2021/09/29 09:48:23;;;;;;;12.57;4.57;;;13.10;99.90;;;;;;5071595;28;20052;-96
2021/09/29 09:51:04;;;;;;;12.30;4.72;;;13.20;99.90;;;;;;5058047;28;20087;-95
2021/09/29 09:53:30;;;;;;;10.30;4.32;;;13.10;99.90;;;;;;5060691;28;20569;-95
2021/09/29 09:55:56;;;;;;;7.75;4.30;;;13.20;99.90;;;;;;5071986;28;20128;-96
2021/09/29 09:58:22;;;;;;;11.88;3.97;;;13.20;99.90;;;;;;5066137;28;20535;-93
2021/09/29 10:00:47;;;;;;;13.50;4.40;;;13.20;99.90;;;;;;5044481;28;20084;-89
2021/09/29 10:03:14;;;;;;;11.80;4.63;;;13.10;99.90;;;;;;5026610;28;20527;-87
2021/09/29 10:05:42;;;;;;;17.23;4.07;;;13.20;99.90;;;;;;5060424;28;20048;-90
2021/09/29 10:08:13;;;;;;;14.63;4.35;;;13.30;99.90;;;;;;5065712;28;20060;-91
2021/09/29 10:10:55;;;;;;;9.20;3.30;;;13.50;99.90;;;;;;5049842;28;20500;-90
2021/09/29 10:27:52;;;;;;;9.63;3.92;;;13.90;99.90;;;;;;5063602;28;20039;-93
2021/09/29 10:30:26;;;;;;;9.05;4.55;;;13.80;99.90;;;;;;5068654;28;20063;-94
2021/09/29 10:32:58;;;;;;;12.50;4.45;;;13.60;99.90;;;;;;5084973;28;20059;-94
2021/09/29 10:35:36;;;;;;;15.02;4.47;;;13.50;99.90;;;;;;5063099;28;20139;-91
2021/09/29 10:43:33;;;;;;;9.10;4.97;;;13.10;99.90;;;;;;5095349;28;20131;-93
2021/09/29 10:46:20;;;;;;;7.65;4.45;;;13.10;99.90;;;;;;5080392;28;20434;-96
2021/09/29 10:49:03;;;;;;;8.15;4.20;;;13.00;99.90;;;;;;5063343;28;20569;-95
2021/09/29 11:03:20;;;;;;;12.02;6.00;;;12.80;99.90;;;;;;5089059;28;20041;-95
2021/09/29 11:09:11;;;;;;;9.60;6.15;;;12.90;99.90;;;;;;5008135;28;20512;-92
2021/09/29 11:28:59;;;;;;;8.25;3.60;;;12.80;99.90;;;;;;5101948;28;20049;-96
2021/09/29 11:31:46;;;;;;;7.15;3.28;;;12.80;99.90;;;;;;5099209;28;20108;-96
2021/09/29 11:34:25;;;;;;;4.53;2.20;;;12.70;99.90;;;;;;5105025;28;20044;-95
2021/09/29 11:39:51;;;;;;;2.97;2.72;;;12.60;99.90;;;;;;5151753;22;20057;-93
2021/09/29 11:48:51;;;;;;;3.97;2.08;;;12.60;99.90;;;;;;5474885;22;20055;-95
2021/09/29 12:08:07;;;;;;;3.05;2.10;;;12.50;99.90;;;;;;4987074;28;20050;-89
2021/09/29 12:10:34;;;;;;;5.30;2.10;;;12.40;99.90;;;;;;4968590;28;20140;-92
2021/09/29 12:13:04;;;;;;;4.78;1.80;;;12.40;99.90;;;;;;4968862;28;20097;-94
2021/09/29 12:15:30;;;;;;;4.10;1.92;;;12.50;99.90;;;;;;4988442;28;20483;-93
2021/09/29 12:17:57;;;;;;;2.65;1.60;;;12.40;99.90;;;;;;4953787;28;20039;-94
2021/09/29 12:20:27;;;;;;;4.70;1.55;;;12.40;99.90;;;;;;4980605;28;20058;-94
2021/09/29 12:22:57;;;;;;;3.40;1.48;;;12.30;99.90;;;;;;4986319;28;20050;-89
2021/09/29 12:25:31;;;;;;;;;;;12.30;99.90;;;;;;4985303;28;20073;-95
2021/09/29 12:28:19;;;;;;;2.92;1.20;;;12.30;99.90;;;;;;4972143;28;19921;-96
2021/09/29 12:30:55;;;;;;;2.85;1.17;;;12.20;99.90;;;;;;4996781;28;20049;-93
2021/09/29 12:36:07;;;;;;;2.22;1.00;;;12.20;99.90;;;;;;4969673;28;20081;-96
2021/09/29 12:38:36;;;;;;;3.95;1.02;;;12.10;99.90;;;;;;4978565;28;20042;-96
2021/09/29 12:41:03;;;;;;;2.78;0.93;;;12.10;99.90;;;;;;4995243;28;20619;-92
2021/09/29 12:43:29;;;;;;;3.30;1.02;;;12.10;99.90;;;;;;4993681;28;20042;-91
2021/09/29 12:45:55;;;;;;;4.35;1.10;;;12.10;99.90;;;;;;4967818;28;20042;-93
2021/09/29 12:48:24;;;;;;;0.90;0.80;;;12.10;99.90;;;;;;4977221;28;20133;-93
2021/09/29 12:50:57;;;;;;;2.85;1.00;;;12.10;99.90;;;;;;4987873;28;20053;-95
2021/09/29 12:56:12;;;;;;;3.33;1.42;;;12.10;99.90;;;;;;4987686;28;20078;-93
2021/09/29 12:58:38;;;;;;;4.05;0.85;;;12.10;99.90;;;;;;4984270;28;20057;-92
2021/09/29 13:01:04;;;;;;;0.60;0.50;;;12.10;99.90;;;;;;4971556;28;20042;-94
2021/09/29 13:03:30;;;;;;;0.95;0.50;;;12.00;99.90;;;;;;4976512;28;20093;-93
2021/09/29 13:05:58;;;;;;;0.50;0.50;;;12.10;99.90;;;;;;4981295;28;20109;-93
2021/09/29 13:08:24;;;;;;;2.47;0.40;;;12.00;99.90;;;;;;4990941;28;20057;-92
2021/09/29 13:10:50;;;;;;;1.95;0.70;;;12.00;99.90;;;;;;4990420;28;20046;-95
2021/09/29 13:13:17;;;;;;;1.88;1.10;;;12.00;99.90;;;;;;4992211;28;20043;-94
2021/09/29 13:15:51;;;;;;;0.65;0.30;;;12.00;99.90;;;;;;4986521;28;20054;-95
2021/09/29 13:18:45;;;;;;;3.80;0.45;;;12.10;99.90;;;;;;4990943;28;20066;-94
2021/09/29 13:21:51;;;;;;;1.92;0.40;;;12.10;99.90;;;;;;4987029;28;20125;-94
2021/09/29 13:24:18;;;;;;;0.20;0.20;;;12.10;99.90;;;;;;4985237;28;20399;-94
2021/09/29 13:37:28;;;;;;;1.42;0.25;;;12.10;99.90;;;;;;4978225;28;20042;-95
2021/09/29 13:39:53;;;;;;;5.18;0.75;;;12.00;99.90;;;;;;4959504;28;20474;-94
2021/09/29 13:42:19;;;;;;;3.03;0.50;;;12.00;99.90;;;;;;4965970;28;20039;-95
2021/09/29 13:44:45;;;;;;;2.08;0.40;;;12.00;99.90;;;;;;4972055;28;20042;-95
2021/09/29 13:47:11;;;;;;;1.23;0.40;;;12.00;99.90;;;;;;4975670;28;20043;-94
2021/09/29 13:49:36;;;;;;;1.13;0.50;;;12.00;99.90;;;;;;4975336;28;20709;-95
2021/09/29 13:52:04;;;;;;;1.85;0.30;;;11.90;99.90;;;;;;4991225;28;20082;-91
2021/09/29 13:54:30;;;;;;;0.95;0.40;;;11.90;99.90;;;;;;4974627;28;20549;-93
2021/09/29 14:00:05;;;;;;;2.28;0.60;;;11.80;99.90;;;;;;4988112;28;20050;-95
2021/09/29 14:30:09;;;;;;;6.68;1.20;;;11.60;99.90;;;;;;4983429;28;20057;-94
2021/09/29 14:32:49;;;;;;;6.18;1.10;;;11.60;99.90;;;;;;4984912;28;20047;-93
2021/09/29 14:35:14;;;;;;;19.58;3.05;;;11.60;99.90;;;;;;4971042;28;20092;-93
2021/09/29 14:37:40;;;;;;;7.78;1.00;;;11.60;99.90;;;;;;4963614;28;20479;-94
2021/09/29 14:40:06;;;;;;;3.05;1.00;;;11.60;99.90;;;;;;4953578;28;20058;-92
2021/09/29 14:42:32;;;;;;;8.73;1.13;;;11.60;99.90;;;;;;4974734;28;20100;-93
2021/09/29 14:44:58;;;;;;;6.00;0.77;;;11.50;99.90;;;;;;4983985;28;20768;-94
2021/09/29 14:47:23;;;;;;;5.00;0.70;;;11.50;99.90;;;;;;4986154;28;20093;-94
2021/09/29 14:49:49;;;;;;;9.95;0.90;;;11.50;99.90;;;;;;4973033;28;20054;-94
2021/09/29 14:52:15;;;;;;;5.95;0.77;;;11.50;99.90;;;;;;4988132;28;20069;-92
2021/09/29 14:54:41;;;;;;;6.32;0.70;;;11.50;99.90;;;;;;4971075;28;20411;-96
2021/09/29 14:57:10;;;;;;;1.98;0.65;;;11.50;99.90;;;;;;4983210;28;20097;-94
2021/09/29 14:59:45;;;;;;;5.00;0.60;;;11.40;99.90;;;;;;4965099;28;20043;-96
2021/09/29 15:02:11;;;;;;;2.92;0.55;;;11.40;99.90;;;;;;4979559;28;20570;-96
2021/09/29 15:04:38;;;;;;;2.40;0.40;;;11.40;99.90;;;;;;4956734;28;20053;-95
2021/09/29 15:07:04;;;;;;;6.80;1.38;;;11.30;99.90;;;;;;4961795;28;20078;-96
2021/09/29 15:09:30;;;;;;;4.90;0.60;;;11.30;99.90;;;;;;4985875;28;20046;-96
2021/09/29 15:11:56;;;;;;;4.80;0.60;;;11.20;99.90;;;;;;4974803;28;20061;-96
2021/09/29 15:17:08;;;;;;;2.88;0.60;;;11.10;99.90;;;;;;4997324;28;20050;-94
2021/09/29 15:19:40;;;;;;;2.58;0.60;;;11.10;99.90;;;;;;4987390;28;20050;-94
2021/09/29 15:49:31;;;;;;;2.85;0.60;;;10.70;99.90;;;;;;4972996;28;20213;-91
2021/09/29 15:52:07;;;;;;;4.22;0.68;;;10.70;99.90;;;;;;4973743;28;20686;-90
2021/09/29 15:54:41;;;;;;;4.60;0.60;;;10.70;99.90;;;;;;4975806;28;20043;-90